オスロ の空港の天気 - METARとTAF

オスロ空港 ( ENGM / OSL ) - ノルウェー アーケシュフース県オスロ
飛行場実況気象(Metar)
観測時間10/20 06:20 CEST (10/20 04:20 UTC)
風向・風速北 5m/s
視程10km以上
天気現象弱いしゅう雨
全天の4割程度の雲 雲底高度 210m
全天の8割程度の雲 雲底高度 270m
気温5℃
湿度93%
気圧1007hPa
METARENGM 200420Z 36009KT 9999 7000NE -SHRA SCT007 BKN009 05/04 Q1007 TEMPO 4000 RA
過去の天気等 Google飛行場航空写真 Wunderground天気予報

過去48時間のMETAR

飛行場予報(TAF)
発表時間: -
20日2時 CEST ~ 20日7時 CEST に一時的に
全天の8割程度の雲 雲底高度 240m
20日7時 CEST ~ 20日15時 CEST に一時的に
視程4000m
天気現象雨霧雨 もや
全天の8割程度の雲 雲底高度 240m
TAF ENGM 2000/2024 01006KT 9999 FEW010 BKN018
TEMPO 2000/2005 BKN008
TEMPO 2005/2013 4000 RADZ BR BKN008